Time;durP1;ratioP1;P1;durP2;ratioP2;P2;SDS_P1;SDS_P2;PMS_P1;PMS_P2;Temp;Humidity;BMP_temperature;BMP_pressure;BME280_temperature;BME280_humidity;BME280_pressure;Samples;Min_cycle;Max_cycle;Signal;HPM_P1;HPM_P2
2021/12/08 00:00:55;;;;;;;4.75;2.00;;;;;;;;;;5066529;28;20377;-53
2021/12/08 00:03:22;;;;;;;2.80;1.80;;;;;;;;;;5066613;28;20411;-52
2021/12/08 00:05:49;;;;;;;3.45;1.65;;;;;;;;;;5066011;28;20028;-50
2021/12/08 00:08:16;;;;;;;3.53;1.95;;;;;;;;;;5066413;28;20040;-51
2021/12/08 00:13:28;;;;;;;5.32;1.90;;;;;;;;;;5066153;28;20075;-52
2021/12/08 00:15:59;;;;;;;5.05;1.73;;;;;;;;;;5065867;28;20024;-49
2021/12/08 00:18:33;;;;;;;3.83;1.60;;;;;;;;;;5065338;28;20439;-52
2021/12/08 00:21:01;;;;;;;2.67;1.58;;;;;;;;;;5065237;28;20029;-52
2021/12/08 00:23:28;;;;;;;3.65;1.88;;;;;;;;;;5066144;28;20407;-52
2021/12/08 00:25:55;;;;;;;3.72;1.90;;;;;;;;;;5074849;28;20024;-51
2021/12/08 00:28:21;;;;;;;4.25;1.70;;;;;;;;;;5082819;28;20407;-49
2021/12/08 00:30:49;;;;;;;3.63;2.03;;;;;;;;;;5066057;28;20024;-52
2021/12/08 00:33:15;;;;;;;2.95;1.58;;;;;;;;;;5064124;28;20036;-50
2021/12/08 00:35:44;;;;;;;2.55;1.52;;;;;;;;;;5064758;28;20082;-52
2021/12/08 00:38:10;;;;;;;4.13;1.67;;;;;;;;;;5066581;28;20106;-50
2021/12/08 00:40:37;;;;;;;2.30;1.17;;;;;;;;;;5065736;28;20031;-48
2021/12/08 00:43:04;;;;;;;2.58;1.50;;;;;;;;;;5065598;28;20029;-50
2021/12/08 00:45:31;;;;;;;4.30;1.70;;;;;;;;;;5064342;28;20020;-49
2021/12/08 00:47:58;;;;;;;3.38;1.52;;;;;;;;;;5065228;28;20036;-52
2021/12/08 00:50:25;;;;;;;4.10;1.67;;;;;;;;;;5065621;28;20061;-51
2021/12/08 00:52:51;;;;;;;5.22;1.80;;;;;;;;;;5063461;28;20094;-51
2021/12/08 00:55:18;;;;;;;2.53;1.40;;;;;;;;;;5065041;28;20024;-52
2021/12/08 00:57:44;;;;;;;2.15;1.42;;;;;;;;;;5065321;28;20071;-51
2021/12/08 01:00:30;;;;;;;3.78;1.55;;;;;;;;;;5065219;28;20024;-51
2021/12/08 01:02:58;;;;;;;4.78;1.55;;;;;;;;;;5065129;28;20061;-48
2021/12/08 01:05:39;;;;;;;3.42;1.45;;;;;;;;;;5064436;28;20882;-51
2021/12/08 01:08:06;;;;;;;2.05;1.35;;;;;;;;;;5064367;28;20036;-50
2021/12/08 01:10:32;;;;;;;2.60;1.38;;;;;;;;;;5065601;28;20108;-51
2021/12/08 01:12:59;;;;;;;3.35;1.98;;;;;;;;;;5066297;28;20316;-52
2021/12/08 01:15:26;;;;;;;2.03;1.35;;;;;;;;;;5062412;28;20048;-52
2021/12/08 01:17:54;;;;;;;2.15;1.27;;;;;;;;;;5065905;28;20087;-53
2021/12/08 01:20:22;;;;;;;3.30;1.55;;;;;;;;;;5063053;28;20016;-52
2021/12/08 01:22:49;;;;;;;2.30;1.20;;;;;;;;;;5064398;28;20036;-51
2021/12/08 01:25:15;;;;;;;2.88;1.45;;;;;;;;;;5047146;28;20090;-53
2021/12/08 01:27:41;;;;;;;1.88;1.10;;;;;;;;;;5065528;28;20032;-50
2021/12/08 01:30:08;;;;;;;1.52;1.23;;;;;;;;;;5065048;28;20031;-51
2021/12/08 01:32:34;;;;;;;1.35;1.15;;;;;;;;;;5065113;28;20029;-48
2021/12/08 01:35:00;;;;;;;1.75;1.10;;;;;;;;;;5064662;28;20039;-47
2021/12/08 01:37:27;;;;;;;1.80;1.60;;;;;;;;;;5063344;28;20036;-49
2021/12/08 01:39:54;;;;;;;3.80;1.02;;;;;;;;;;5064079;28;20048;-49
2021/12/08 01:42:29;;;;;;;2.63;1.40;;;;;;;;;;5065308;28;20506;-47
2021/12/08 01:47:39;;;;;;;2.05;1.45;;;;;;;;;;5064665;28;20095;-48
2021/12/08 01:50:06;;;;;;;2.40;1.40;;;;;;;;;;5064425;28;20028;-48
2021/12/08 01:52:33;;;;;;;4.15;1.50;;;;;;;;;;5063476;28;20075;-47
2021/12/08 01:55:00;;;;;;;2.22;1.55;;;;;;;;;;5063572;28;20025;-48
2021/12/08 01:57:27;;;;;;;2.83;1.60;;;;;;;;;;5064161;28;20063;-48
2021/12/08 01:59:53;;;;;;;2.75;1.50;;;;;;;;;;5063413;28;20607;-50
2021/12/08 02:02:19;;;;;;;2.28;1.67;;;;;;;;;;5064344;28;20025;-51
2021/12/08 02:04:45;;;;;;;2.17;1.30;;;;;;;;;;5063720;28;20024;-50
2021/12/08 02:07:11;;;;;;;2.00;1.30;;;;;;;;;;5063536;28;20080;-49
2021/12/08 02:09:38;;;;;;;1.90;1.23;;;;;;;;;;5063560;28;20059;-48
2021/12/08 02:12:04;;;;;;;2.25;1.58;;;;;;;;;;5064377;28;20050;-51
2021/12/08 02:14:32;;;;;;;3.13;1.80;;;;;;;;;;5063852;28;20538;-48
2021/12/08 02:16:59;;;;;;;1.48;1.33;;;;;;;;;;5065025;28;20032;-49
2021/12/08 02:19:25;;;;;;;2.97;1.60;;;;;;;;;;5062636;28;20488;-51
2021/12/08 02:21:54;;;;;;;1.65;1.35;;;;;;;;;;5064462;28;20089;-50
2021/12/08 02:24:21;;;;;;;2.80;1.25;;;;;;;;;;5063446;28;20407;-48
2021/12/08 02:26:50;;;;;;;1.65;1.20;;;;;;;;;;5061862;28;20033;-49
2021/12/08 02:29:21;;;;;;;1.80;1.20;;;;;;;;;;5063349;28;20050;-48
2021/12/08 02:31:59;;;;;;;1.42;0.80;;;;;;;;;;5064468;28;20043;-48
2021/12/08 02:48:10;;;;;;;1.45;0.77;;;;;;;;;;5085333;28;20135;-48
2021/12/08 02:50:39;;;;;;;2.25;0.90;;;;;;;;;;5084286;28;20051;-50
2021/12/08 02:53:06;;;;;;;1.15;0.80;;;;;;;;;;5084783;28;20024;-48
2021/12/08 02:55:33;;;;;;;1.17;1.00;;;;;;;;;;5084462;28;21095;-48
2021/12/08 02:58:01;;;;;;;2.20;1.10;;;;;;;;;;5070261;28;20031;-48
2021/12/08 03:00:29;;;;;;;1.05;0.70;;;;;;;;;;5063788;28;20036;-48
2021/12/08 03:02:58;;;;;;;1.00;0.90;;;;;;;;;;5064140;28;20044;-48
2021/12/08 03:05:26;;;;;;;1.17;0.88;;;;;;;;;;5063812;28;20078;-50
2021/12/08 03:07:53;;;;;;;1.95;0.88;;;;;;;;;;5064247;28;20040;-51
2021/12/08 03:10:20;;;;;;;1.33;1.00;;;;;;;;;;5064071;28;20515;-52
2021/12/08 03:12:46;;;;;;;0.73;0.73;;;;;;;;;;5064293;28;20411;-49
2021/12/08 03:15:14;;;;;;;0.60;0.60;;;;;;;;;;5062275;28;20021;-51
2021/12/08 03:17:40;;;;;;;0.70;0.70;;;;;;;;;;5064480;28;20029;-50
2021/12/08 03:20:09;;;;;;;0.73;0.60;;;;;;;;;;5061575;28;20013;-51
2021/12/08 03:22:43;;;;;;;0.50;0.50;;;;;;;;;;5064134;28;20470;-48
2021/12/08 03:25:13;;;;;;;0.80;0.70;;;;;;;;;;5045200;28;20024;-48
2021/12/08 03:27:49;;;;;;;1.08;0.80;;;;;;;;;;5063571;28;20120;-52
2021/12/08 03:30:20;;;;;;;1.10;0.80;;;;;;;;;;5063514;28;20070;-49
2021/12/08 03:32:47;;;;;;;0.55;0.55;;;;;;;;;;5063061;28;20410;-50
2021/12/08 03:35:16;;;;;;;0.77;0.70;;;;;;;;;;5062719;28;20107;-50
2021/12/08 03:37:46;;;;;;;0.80;0.80;;;;;;;;;;5063575;28;20064;-49
2021/12/08 03:40:17;;;;;;;0.52;0.52;;;;;;;;;;5060940;28;20043;-50
2021/12/08 03:42:44;;;;;;;0.60;0.60;;;;;;;;;;5064041;28;20507;-49
2021/12/08 03:45:13;;;;;;;0.50;0.50;;;;;;;;;;5063590;28;20028;-51
2021/12/08 03:47:41;;;;;;;0.73;0.50;;;;;;;;;;5063702;28;21076;-48
2021/12/08 03:50:09;;;;;;;1.10;0.63;;;;;;;;;;5062582;28;20035;-52
2021/12/08 03:52:37;;;;;;;0.70;0.60;;;;;;;;;;5061219;28;20044;-50
2021/12/08 03:55:04;;;;;;;0.60;0.60;;;;;;;;;;5061796;28;20401;-51
2021/12/08 03:57:30;;;;;;;0.80;0.77;;;;;;;;;;5063540;28;20039;-52
2021/12/08 03:59:57;;;;;;;0.70;0.70;;;;;;;;;;5061828;28;20021;-51
2021/12/08 04:02:23;;;;;;;1.05;0.70;;;;;;;;;;5066502;28;20403;-50
2021/12/08 04:04:51;;;;;;;1.40;1.05;;;;;;;;;;5065931;28;20025;-49
2021/12/08 04:07:18;;;;;;;2.28;0.88;;;;;;;;;;5067070;28;20035;-48
2021/12/08 04:09:46;;;;;;;0.82;0.82;;;;;;;;;;5064878;28;20412;-47
2021/12/08 04:12:16;;;;;;;1.33;0.90;;;;;;;;;;5066095;28;20029;-47
2021/12/08 04:14:50;;;;;;;1.30;1.00;;;;;;;;;;5067266;28;20024;-49
2021/12/08 04:17:19;;;;;;;1.48;1.05;;;;;;;;;;5065991;28;20028;-48
2021/12/08 04:19:46;;;;;;;1.77;1.20;;;;;;;;;;5066923;28;20349;-50
2021/12/08 04:22:22;;;;;;;1.27;1.13;;;;;;;;;;5064495;28;20089;-48
2021/12/08 04:24:50;;;;;;;2.58;1.40;;;;;;;;;;5065423;28;20027;-48
2021/12/08 04:27:19;;;;;;;1.40;1.05;;;;;;;;;;5065270;28;20090;-52
2021/12/08 04:29:46;;;;;;;1.55;1.10;;;;;;;;;;5066626;28;20132;-49
2021/12/08 04:32:15;;;;;;;1.33;1.10;;;;;;;;;;5049107;28;20033;-49
2021/12/08 04:34:42;;;;;;;1.40;1.27;;;;;;;;;;5066830;28;20377;-52
2021/12/08 04:37:17;;;;;;;1.17;1.08;;;;;;;;;;5065533;28;20036;-53
2021/12/08 04:40:06;;;;;;;1.20;1.10;;;;;;;;;;5065671;28;20550;-49
2021/12/08 04:45:34;;;;;;;0.90;0.90;;;;;;;;;;5057016;28;20086;-49
2021/12/08 04:53:44;;;;;;;1.05;0.95;;;;;;;;;;5064024;28;20403;-51
2021/12/08 05:07:16;;;;;;;0.90;0.90;;;;;;;;;;5064481;28;20124;-49
2021/12/08 05:09:47;;;;;;;1.55;1.00;;;;;;;;;;5065767;28;20021;-52
2021/12/08 05:12:33;;;;;;;1.20;1.02;;;;;;;;;;5064582;28;20028;-52
2021/12/08 05:15:05;;;;;;;1.33;1.02;;;;;;;;;;5064023;28;20113;-52
2021/12/08 05:17:37;;;;;;;1.40;1.13;;;;;;;;;;5065501;28;20566;-51
2021/12/08 05:20:11;;;;;;;1.20;1.00;;;;;;;;;;5064536;28;20047;-49
2021/12/08 05:22:41;;;;;;;2.17;1.23;;;;;;;;;;5064489;28;20445;-48
2021/12/08 05:25:11;;;;;;;1.50;1.13;;;;;;;;;;5064878;28;20033;-52
2021/12/08 05:27:43;;;;;;;1.38;1.17;;;;;;;;;;5065961;28;20029;-48
2021/12/08 05:30:12;;;;;;;2.28;0.90;;;;;;;;;;5065394;28;20028;-49
2021/12/08 05:32:39;;;;;;;1.30;0.90;;;;;;;;;;5064914;28;20503;-50
2021/12/08 05:35:07;;;;;;;0.80;0.80;;;;;;;;;;5062108;28;20353;-51
2021/12/08 05:37:34;;;;;;;0.90;0.80;;;;;;;;;;5045940;28;20446;-52
2021/12/08 05:40:01;;;;;;;1.48;0.85;;;;;;;;;;5063781;28;20459;-52
2021/12/08 05:42:30;;;;;;;2.05;1.10;;;;;;;;;;5065550;28;20511;-52
2021/12/08 05:44:56;;;;;;;0.73;0.70;;;;;;;;;;5063221;28;20025;-51
2021/12/08 05:47:24;;;;;;;0.85;0.70;;;;;;;;;;5063989;28;20027;-52
2021/12/08 05:49:51;;;;;;;1.00;0.90;;;;;;;;;;5064843;28;20036;-52
2021/12/08 05:52:18;;;;;;;1.27;1.08;;;;;;;;;;5065327;28;20050;-52
2021/12/08 05:54:47;;;;;;;1.30;1.20;;;;;;;;;;5062506;28;20422;-50
2021/12/08 05:57:15;;;;;;;1.42;1.15;;;;;;;;;;5063427;28;20029;-51
2021/12/08 05:59:42;;;;;;;1.30;1.17;;;;;;;;;;5065451;28;20040;-51
2021/12/08 06:02:14;;;;;;;2.78;1.73;;;;;;;;;;5062859;28;20070;-50
2021/12/08 06:04:41;;;;;;;1.98;1.65;;;;;;;;;;5064497;28;20035;-50
2021/12/08 06:07:08;;;;;;;2.88;1.60;;;;;;;;;;5063643;28;20040;-53
2021/12/08 06:09:36;;;;;;;1.67;1.58;;;;;;;;;;5064135;28;20477;-51
2021/12/08 06:12:04;;;;;;;2.33;1.58;;;;;;;;;;5065055;28;20036;-51
2021/12/08 06:14:32;;;;;;;1.75;1.23;;;;;;;;;;5063917;28;20037;-50
2021/12/08 06:17:01;;;;;;;1.35;1.10;;;;;;;;;;5062696;28;20533;-51
2021/12/08 06:19:27;;;;;;;0.93;0.90;;;;;;;;;;5060957;28;20017;-51
2021/12/08 06:21:53;;;;;;;0.73;0.50;;;;;;;;;;5064448;28;20042;-52
2021/12/08 06:24:20;;;;;;;0.52;0.52;;;;;;;;;;5063296;28;20021;-51
2021/12/08 06:26:46;;;;;;;0.50;0.50;;;;;;;;;;5064826;28;20561;-52
2021/12/08 06:29:17;;;;;;;0.60;0.60;;;;;;;;;;5062698;28;20086;-48
2021/12/08 06:31:44;;;;;;;0.50;0.50;;;;;;;;;;5063215;28;20085;-52
2021/12/08 06:34:11;;;;;;;0.40;0.40;;;;;;;;;;5062982;28;20503;-49
2021/12/08 06:36:40;;;;;;;0.65;0.50;;;;;;;;;;5059037;28;20033;-53
2021/12/08 06:39:07;;;;;;;0.45;0.40;;;;;;;;;;5059649;28;20623;-52
2021/12/08 06:41:35;;;;;;;0.50;0.50;;;;;;;;;;5064551;28;20492;-49
2021/12/08 06:44:06;;;;;;;0.40;0.40;;;;;;;;;;5065397;28;20024;-52
2021/12/08 06:46:32;;;;;;;0.80;0.68;;;;;;;;;;5065911;28;20067;-52
2021/12/08 06:49:00;;;;;;;1.42;1.05;;;;;;;;;;5065946;28;20025;-51
2021/12/08 06:51:30;;;;;;;1.85;1.05;;;;;;;;;;5065832;28;20111;-52
2021/12/08 06:53:58;;;;;;;1.23;1.00;;;;;;;;;;5065908;28;20028;-52
2021/12/08 06:56:27;;;;;;;2.08;1.25;;;;;;;;;;5065602;28;20036;-51
2021/12/08 06:58:56;;;;;;;1.58;1.15;;;;;;;;;;5065645;28;20059;-51
2021/12/08 07:01:48;;;;;;;1.02;0.88;;;;;;;;;;5063049;28;20078;-51
2021/12/08 07:06:59;;;;;;;1.00;0.90;;;;;;;;;;5065814;28;20071;-50
2021/12/08 07:09:29;;;;;;;1.20;0.75;;;;;;;;;;5065973;28;20024;-49
2021/12/08 07:11:58;;;;;;;1.48;0.63;;;;;;;;;;5060404;28;20032;-51
2021/12/08 07:14:25;;;;;;;0.70;0.60;;;;;;;;;;5079074;28;20080;-53
2021/12/08 07:16:54;;;;;;;0.73;0.50;;;;;;;;;;5075441;28;20041;-49
2021/12/08 07:19:33;;;;;;;0.60;0.50;;;;;;;;;;5046184;28;20021;-50
2021/12/08 07:22:01;;;;;;;0.50;0.50;;;;;;;;;;5063219;28;20029;-48
2021/12/08 07:24:30;;;;;;;0.40;0.40;;;;;;;;;;5065737;28;20024;-50
2021/12/08 07:26:58;;;;;;;0.40;0.40;;;;;;;;;;5050216;28;20037;-51
2021/12/08 07:29:26;;;;;;;0.73;0.43;;;;;;;;;;5058334;28;20039;-50
2021/12/08 07:31:55;;;;;;;0.52;0.52;;;;;;;;;;5063382;28;20392;-49
2021/12/08 07:34:22;;;;;;;0.98;0.60;;;;;;;;;;5058879;28;20033;-52
2021/12/08 07:36:51;;;;;;;0.93;0.60;;;;;;;;;;5065067;28;20116;-50
2021/12/08 07:39:21;;;;;;;0.93;0.70;;;;;;;;;;5064516;28;20089;-50
2021/12/08 07:41:52;;;;;;;1.90;1.40;;;;;;;;;;5068952;28;20115;-49
2021/12/08 07:44:19;;;;;;;1.13;1.00;;;;;;;;;;5067093;28;20100;-51
2021/12/08 07:46:48;;;;;;;0.77;0.77;;;;;;;;;;5065806;28;20036;-50
2021/12/08 07:49:17;;;;;;;1.00;0.90;;;;;;;;;;5079722;28;20028;-51
2021/12/08 07:51:48;;;;;;;2.70;0.90;;;;;;;;;;5069264;28;20037;-52
2021/12/08 07:54:15;;;;;;;0.60;0.60;;;;;;;;;;5066777;28;20024;-48
2021/12/08 07:56:43;;;;;;;0.70;0.63;;;;;;;;;;5073491;28;20039;-50
2021/12/08 07:59:10;;;;;;;1.15;0.80;;;;;;;;;;5066368;28;20090;-48
2021/12/08 08:01:38;;;;;;;1.88;0.80;;;;;;;;;;5070510;28;20028;-50
2021/12/08 08:04:06;;;;;;;1.08;0.80;;;;;;;;;;5068547;28;20024;-52
2021/12/08 08:09:42;;;;;;;1.38;0.85;;;;;;;;;;5065264;28;20370;-48
2021/12/08 08:15:15;;;;;;;2.33;1.30;;;;;;;;;;5065949;28;20051;-52
2021/12/08 08:17:45;;;;;;;2.45;1.30;;;;;;;;;;5067249;28;20123;-51
2021/12/08 08:20:31;;;;;;;1.20;1.10;;;;;;;;;;5049995;28;20083;-51
2021/12/08 08:22:57;;;;;;;1.63;1.02;;;;;;;;;;5068350;28;20111;-50
2021/12/08 08:25:26;;;;;;;1.98;1.30;;;;;;;;;;5066422;28;20103;-51
2021/12/08 08:27:53;;;;;;;2.45;1.58;;;;;;;;;;5067288;28;20565;-47
2021/12/08 08:30:21;;;;;;;5.38;1.60;;;;;;;;;;5066581;28;20043;-49
2021/12/08 08:32:50;;;;;;;4.07;2.40;;;;;;;;;;5067149;28;20082;-47
2021/12/08 08:35:26;;;;;;;3.58;2.13;;;;;;;;;;5066902;28;20032;-51
2021/12/08 08:37:53;;;;;;;3.13;2.47;;;;;;;;;;5067011;28;20036;-51
2021/12/08 08:40:25;;;;;;;4.47;2.22;;;;;;;;;;5066446;28;20032;-49
2021/12/08 08:42:52;;;;;;;2.65;2.03;;;;;;;;;;5067289;28;20118;-52
2021/12/08 08:45:30;;;;;;;2.90;1.70;;;;;;;;;;5065769;28;20020;-50
2021/12/08 08:48:16;;;;;;;2.95;1.77;;;;;;;;;;5067004;28;20032;-49
2021/12/08 08:50:45;;;;;;;2.50;1.63;;;;;;;;;;5066613;28;20279;-52
2021/12/08 08:53:12;;;;;;;2.47;1.60;;;;;;;;;;5066221;28;20051;-50
2021/12/08 08:55:41;;;;;;;2.22;1.55;;;;;;;;;;5066131;28;20028;-52
2021/12/08 08:58:09;;;;;;;1.77;1.30;;;;;;;;;;5066073;28;20079;-51
2021/12/08 09:00:38;;;;;;;1.92;1.40;;;;;;;;;;5066287;28;20032;-52
2021/12/08 09:03:06;;;;;;;4.70;2.00;;;;;;;;;;5066565;28;20055;-50
2021/12/08 09:05:37;;;;;;;7.68;3.67;;;;;;;;;;5063927;28;20024;-52
2021/12/08 09:08:05;;;;;;;9.52;3.65;;;;;;;;;;5061625;28;20039;-52
2021/12/08 09:10:36;;;;;;;5.72;2.92;;;;;;;;;;5068065;28;20102;-51
2021/12/08 09:13:07;;;;;;;4.70;2.70;;;;;;;;;;5068352;28;20158;-52
2021/12/08 09:15:44;;;;;;;3.70;2.10;;;;;;;;;;5049968;28;20507;-51
2021/12/08 09:18:12;;;;;;;3.28;2.05;;;;;;;;;;5065725;28;20060;-50
2021/12/08 09:20:52;;;;;;;3.40;2.10;;;;;;;;;;5067764;28;20020;-50
2021/12/08 09:23:25;;;;;;;3.00;1.90;;;;;;;;;;5067157;28;20044;-50
2021/12/08 09:25:53;;;;;;;2.58;1.52;;;;;;;;;;5065669;28;20078;-49
2021/12/08 09:28:24;;;;;;;2.80;1.83;;;;;;;;;;5064722;28;20499;-51
2021/12/08 09:31:01;;;;;;;2.45;1.42;;;;;;;;;;5067143;28;20107;-52
2021/12/08 09:33:36;;;;;;;2.40;1.23;;;;;;;;;;5062142;28;20111;-51
2021/12/08 09:36:07;;;;;;;1.92;1.23;;;;;;;;;;5062996;28;20064;-50
2021/12/08 09:38:41;;;;;;;1.42;1.10;;;;;;;;;;5063032;28;20519;-52
2021/12/08 09:41:07;;;;;;;;;;;;;;;;;;5063582;28;20016;-52
2021/12/08 09:43:41;;;;;;;1.52;1.20;;;;;;;;;;5066866;28;20609;-49
2021/12/08 09:46:07;;;;;;;;;;;;;;;;;;5066625;28;20028;-49
2021/12/08 09:48:37;;;;;;;1.35;1.00;;;;;;;;;;5066909;28;19912;-49
2021/12/08 09:51:03;;;;;;;1.20;0.98;;;;;;;;;;5067134;28;20470;-51
2021/12/08 09:53:29;;;;;;;1.20;1.10;;;;;;;;;;5066942;28;20033;-51
2021/12/08 09:55:55;;;;;;;1.52;1.20;;;;;;;;;;5066302;28;20111;-49
2021/12/08 09:58:22;;;;;;;1.17;1.08;;;;;;;;;;5065503;28;20085;-50
2021/12/08 10:00:49;;;;;;;1.92;0.80;;;;;;;;;;5066230;28;20506;-52
2021/12/08 10:03:16;;;;;;;3.28;1.10;;;;;;;;;;5065892;28;20029;-51
2021/12/08 10:05:43;;;;;;;1.45;1.10;;;;;;;;;;5066243;28;20021;-51
2021/12/08 10:08:10;;;;;;;1.02;0.80;;;;;;;;;;5065631;28;20031;-52
2021/12/08 10:10:38;;;;;;;2.20;1.10;;;;;;;;;;5065842;28;20123;-50
2021/12/08 10:13:05;;;;;;;2.42;1.02;;;;;;;;;;5066816;28;20036;-47
2021/12/08 10:15:31;;;;;;;2.00;1.10;;;;;;;;;;5049925;28;20499;-53
2021/12/08 10:17:58;;;;;;;1.40;0.90;;;;;;;;;;5066766;28;20054;-53
2021/12/08 10:20:26;;;;;;;1.48;1.08;;;;;;;;;;5066826;28;20103;-51
2021/12/08 10:23:11;;;;;;;0.85;0.73;;;;;;;;;;5066849;28;20060;-52
2021/12/08 10:25:37;;;;;;;;;;;;;;;;;;5067891;28;20560;-50
2021/12/08 10:28:08;;;;;;;1.90;1.00;;;;;;;;;;5066831;28;19908;-51
2021/12/08 10:30:41;;;;;;;1.67;1.30;;;;;;;;;;5067281;28;20161;-51
2021/12/08 10:33:12;;;;;;;1.15;0.95;;;;;;;;;;5066335;28;20033;-50
2021/12/08 10:35:48;;;;;;;1.23;0.95;;;;;;;;;;5066119;28;20073;-48
2021/12/08 10:38:16;;;;;;;1.70;1.30;;;;;;;;;;5049580;28;20553;-49
2021/12/08 10:41:02;;;;;;;2.60;1.70;;;;;;;;;;5065498;28;20024;-49
2021/12/08 10:43:29;;;;;;;3.35;2.10;;;;;;;;;;5065739;28;20407;-48
2021/12/08 10:46:00;;;;;;;2.83;2.08;;;;;;;;;;5065932;28;20495;-52
2021/12/08 10:48:33;;;;;;;3.00;2.05;;;;;;;;;;5066615;28;20496;-49
2021/12/08 10:56:37;;;;;;;4.85;2.53;;;;;;;;;;5066122;28;20081;-51
2021/12/08 10:59:03;;;;;;;2.70;2.20;;;;;;;;;;5065823;28;20093;-50
2021/12/08 11:01:29;;;;;;;2.30;1.95;;;;;;;;;;5065630;28;20475;-52
2021/12/08 11:04:16;;;;;;;2.75;1.83;;;;;;;;;;5065510;28;20082;-51
2021/12/08 11:06:42;;;;;;;2.47;1.83;;;;;;;;;;5065421;28;20563;-51
2021/12/08 11:09:15;;;;;;;5.10;1.70;;;;;;;;;;5067092;28;20044;-52
2021/12/08 11:11:44;;;;;;;1.65;1.40;;;;;;;;;;5070006;28;20074;-51
2021/12/08 11:14:11;;;;;;;2.90;1.90;;;;;;;;;;5054517;28;20024;-51
2021/12/08 11:16:41;;;;;;;1.58;1.15;;;;;;;;;;5069220;28;20442;-52
2021/12/08 11:19:13;;;;;;;1.75;1.30;;;;;;;;;;5069148;28;20033;-51
2021/12/08 11:21:45;;;;;;;1.50;1.40;;;;;;;;;;5069629;28;20089;-48
2021/12/08 11:24:16;;;;;;;1.98;1.48;;;;;;;;;;5069369;28;20044;-51
2021/12/08 11:26:47;;;;;;;3.05;1.80;;;;;;;;;;5069570;28;20496;-49
2021/12/08 11:29:26;;;;;;;1.50;1.30;;;;;;;;;;5068852;28;20037;-50
2021/12/08 11:31:54;;;;;;;3.35;2.00;;;;;;;;;;5069324;28;20036;-51
2021/12/08 11:34:21;;;;;;;2.13;1.63;;;;;;;;;;5069171;28;20515;-51
2021/12/08 11:36:51;;;;;;;2.75;1.88;;;;;;;;;;5069465;28;20028;-49
2021/12/08 11:39:20;;;;;;;3.08;2.05;;;;;;;;;;5067771;28;20035;-50
2021/12/08 11:41:48;;;;;;;2.97;1.80;;;;;;;;;;5068423;28;20330;-52
2021/12/08 11:44:16;;;;;;;2.38;1.52;;;;;;;;;;5068745;28;20040;-50
2021/12/08 11:46:44;;;;;;;1.45;1.30;;;;;;;;;;5069063;28;20090;-51
2021/12/08 11:49:11;;;;;;;2.33;1.98;;;;;;;;;;5068614;28;20024;-51
2021/12/08 11:51:43;;;;;;;2.38;1.90;;;;;;;;;;5049915;28;20139;-49
2021/12/08 11:54:28;;;;;;;2.42;1.92;;;;;;;;;;5068844;28;20032;-50
2021/12/08 11:57:01;;;;;;;3.67;2.45;;;;;;;;;;5068711;28;20032;-50
2021/12/08 11:59:27;;;;;;;6.43;3.15;;;;;;;;;;5068471;28;20020;-50
2021/12/08 12:01:53;;;;;;;4.05;2.63;;;;;;;;;;5069044;28;20037;-49
2021/12/08 12:04:20;;;;;;;3.10;2.35;;;;;;;;;;5068301;28;20028;-48
2021/12/08 12:06:46;;;;;;;2.78;2.00;;;;;;;;;;5068463;28;20032;-49
2021/12/08 12:09:12;;;;;;;3.45;1.95;;;;;;;;;;5068570;28;20032;-51
2021/12/08 12:11:38;;;;;;;2.28;2.00;;;;;;;;;;5068963;28;20104;-51
2021/12/08 12:14:05;;;;;;;4.22;2.90;;;;;;;;;;5068352;28;20025;-50
2021/12/08 12:16:31;;;;;;;4.70;3.22;;;;;;;;;;5068669;28;20029;-49
2021/12/08 12:19:01;;;;;;;5.60;3.42;;;;;;;;;;5068551;28;20039;-52
2021/12/08 12:21:46;;;;;;;5.90;3.50;;;;;;;;;;5067817;28;20095;-50
2021/12/08 12:24:24;;;;;;;6.10;3.63;;;;;;;;;;5068301;28;20108;-52
2021/12/08 12:26:57;;;;;;;5.75;3.50;;;;;;;;;;5068487;28;20029;-48
2021/12/08 12:29:36;;;;;;;6.80;3.63;;;;;;;;;;5068083;28;20441;-49
2021/12/08 12:32:02;;;;;;;5.43;3.40;;;;;;;;;;5068605;28;20044;-52
2021/12/08 12:34:31;;;;;;;5.88;3.53;;;;;;;;;;5068201;28;20030;-51
2021/12/08 12:36:57;;;;;;;5.30;2.70;;;;;;;;;;5068346;28;20086;-51
2021/12/08 12:39:25;;;;;;;4.03;2.90;;;;;;;;;;5067328;28;20039;-51
2021/12/08 12:41:57;;;;;;;4.72;3.03;;;;;;;;;;5066625;28;20033;-52
2021/12/08 12:44:26;;;;;;;3.63;2.65;;;;;;;;;;5067816;28;20139;-51
2021/12/08 12:47:09;;;;;;;4.45;3.10;;;;;;;;;;5068228;28;20032;-51
2021/12/08 12:49:36;;;;;;;4.28;2.83;;;;;;;;;;5068315;28;20567;-52
2021/12/08 12:52:06;;;;;;;3.65;2.70;;;;;;;;;;5068702;28;20032;-52
2021/12/08 12:54:33;;;;;;;2.83;2.17;;;;;;;;;;5066909;28;20029;-52
2021/12/08 12:57:03;;;;;;;3.17;2.35;;;;;;;;;;5055547;28;20047;-51
2021/12/08 12:59:49;;;;;;;2.35;1.90;;;;;;;;;;5067341;28;20066;-52
2021/12/08 13:02:22;;;;;;;2.38;2.03;;;;;;;;;;5063420;28;20536;-51
2021/12/08 13:04:51;;;;;;;3.33;1.95;;;;;;;;;;5064605;28;20016;-52
2021/12/08 13:07:18;;;;;;;3.30;2.60;;;;;;;;;;5067354;28;20059;-52
2021/12/08 13:09:48;;;;;;;3.17;2.38;;;;;;;;;;5068064;28;20028;-52
2021/12/08 13:12:28;;;;;;;4.20;2.97;;;;;;;;;;5067888;28;20063;-52
2021/12/08 13:15:17;;;;;;;3.70;2.80;;;;;;;;;;5067666;28;20123;-51
2021/12/08 13:18:10;;;;;;;4.70;3.20;;;;;;;;;;5068156;28;20039;-51
2021/12/08 13:20:37;;;;;;;4.72;3.15;;;;;;;;;;5063257;28;20040;-53
2021/12/08 13:23:06;;;;;;;6.63;3.90;;;;;;;;;;5068858;28;20391;-51
2021/12/08 13:25:42;;;;;;;2.90;2.25;;;;;;;;;;5068791;28;20035;-50
2021/12/08 13:28:18;;;;;;;3.17;2.00;;;;;;;;;;5068008;28;20523;-51
2021/12/08 13:30:53;;;;;;;2.25;1.60;;;;;;;;;;5048546;28;20381;-51
2021/12/08 13:33:33;;;;;;;2.53;1.88;;;;;;;;;;5047293;28;20028;-49
2021/12/08 13:36:01;;;;;;;2.95;1.98;;;;;;;;;;5061483;28;20029;-52
2021/12/08 13:38:27;;;;;;;1.88;1.70;;;;;;;;;;5067418;28;20087;-49
2021/12/08 13:40:55;;;;;;;2.83;2.00;;;;;;;;;;5062264;28;20033;-52
2021/12/08 13:43:36;;;;;;;3.45;1.60;;;;;;;;;;5066188;28;20032;-51
2021/12/08 13:46:03;;;;;;;1.85;1.50;;;;;;;;;;5066390;28;20020;-52
2021/12/08 13:48:29;;;;;;;2.10;1.50;;;;;;;;;;5066138;28;20563;-51
2021/12/08 13:51:14;;;;;;;1.70;1.35;;;;;;;;;;5066219;28;20036;-51
2021/12/08 13:53:40;;;;;;;1.95;1.38;;;;;;;;;;5061749;28;20537;-51
2021/12/08 13:56:06;;;;;;;2.70;1.35;;;;;;;;;;5045751;28;20036;-49
2021/12/08 13:58:39;;;;;;;2.63;1.77;;;;;;;;;;5064481;28;20036;-51
2021/12/08 14:01:06;;;;;;;1.80;1.40;;;;;;;;;;5064408;28;20036;-49
2021/12/08 14:03:40;;;;;;;1.50;1.30;;;;;;;;;;5064083;28;20089;-51
2021/12/08 14:06:07;;;;;;;2.30;1.70;;;;;;;;;;5058185;28;20032;-50
2021/12/08 14:08:33;;;;;;;2.15;1.50;;;;;;;;;;5065657;28;20085;-48
2021/12/08 14:11:02;;;;;;;1.35;1.15;;;;;;;;;;5063664;28;20581;-49
2021/12/08 14:13:30;;;;;;;1.63;1.10;;;;;;;;;;5063001;28;20032;-48
2021/12/08 14:16:18;;;;;;;2.42;1.20;;;;;;;;;;5045720;28;20036;-50
2021/12/08 14:18:48;;;;;;;2.35;1.42;;;;;;;;;;5064011;28;20052;-49
2021/12/08 14:21:23;;;;;;;2.13;1.20;;;;;;;;;;5064139;28;20063;-49
2021/12/08 14:23:57;;;;;;;3.78;1.30;;;;;;;;;;5063423;28;20222;-50
2021/12/08 14:26:28;;;;;;;2.65;1.30;;;;;;;;;;5060043;28;20388;-51
2021/12/08 14:28:54;;;;;;;1.88;1.17;;;;;;;;;;5062999;28;20036;-52
2021/12/08 14:31:23;;;;;;;2.25;1.20;;;;;;;;;;5047439;28;20027;-51
2021/12/08 14:34:00;;;;;;;1.60;1.20;;;;;;;;;;5063203;28;20099;-49
2021/12/08 14:36:31;;;;;;;1.13;1.02;;;;;;;;;;5062794;28;20028;-50
2021/12/08 14:38:59;;;;;;;1.55;1.10;;;;;;;;;;5062372;28;20020;-49
2021/12/08 14:41:33;;;;;;;1.63;0.88;;;;;;;;;;5062370;28;20525;-51
2021/12/08 14:44:15;;;;;;;1.75;1.05;;;;;;;;;;5046532;28;20487;-48
2021/12/08 14:46:42;;;;;;;1.38;0.90;;;;;;;;;;5067404;28;20035;-49
2021/12/08 14:49:11;;;;;;;1.85;1.05;;;;;;;;;;5074544;28;20507;-52
2021/12/08 14:51:39;;;;;;;3.33;1.10;;;;;;;;;;5064247;28;20522;-48
2021/12/08 14:54:10;;;;;;;1.55;0.90;;;;;;;;;;5064065;28;20032;-48
2021/12/08 14:56:37;;;;;;;2.13;1.10;;;;;;;;;;5044912;28;20522;-47
2021/12/08 14:59:05;;;;;;;1.25;0.90;;;;;;;;;;5062305;28;20491;-48
2021/12/08 15:01:31;;;;;;;1.48;0.90;;;;;;;;;;5061543;28;20048;-47
2021/12/08 15:03:57;;;;;;;1.67;1.10;;;;;;;;;;5076483;28;20024;-48
2021/12/08 15:06:24;;;;;;;1.42;0.90;;;;;;;;;;5064716;28;20082;-48
2021/12/08 15:08:51;;;;;;;2.78;1.20;;;;;;;;;;5063769;28;20572;-50
2021/12/08 15:11:19;;;;;;;2.33;1.13;;;;;;;;;;5063437;28;20032;-47
2021/12/08 15:13:46;;;;;;;2.38;1.38;;;;;;;;;;5063942;28;20035;-51
2021/12/08 15:16:20;;;;;;;1.70;1.20;;;;;;;;;;5062971;28;20028;-49
2021/12/08 15:18:49;;;;;;;1.77;1.15;;;;;;;;;;5063005;28;20377;-47
2021/12/08 15:21:24;;;;;;;1.30;1.20;;;;;;;;;;5046342;28;20020;-52
2021/12/08 15:24:00;;;;;;;2.13;1.20;;;;;;;;;;5062239;28;20035;-50
2021/12/08 15:26:27;;;;;;;1.48;1.33;;;;;;;;;;5054764;28;20028;-51
2021/12/08 15:28:54;;;;;;;2.13;1.40;;;;;;;;;;5061038;28;20090;-52
2021/12/08 15:31:28;;;;;;;2.47;1.40;;;;;;;;;;5060177;28;20036;-52
2021/12/08 15:33:54;;;;;;;1.98;1.38;;;;;;;;;;5063726;28;20491;-52
2021/12/08 15:36:24;;;;;;;3.08;2.10;;;;;;;;;;5061067;28;20436;-49
2021/12/08 15:38:51;;;;;;;3.88;2.20;;;;;;;;;;5052940;28;20036;-51
2021/12/08 15:41:21;;;;;;;4.97;3.08;;;;;;;;;;5063455;28;20086;-49
2021/12/08 15:43:48;;;;;;;5.50;3.17;;;;;;;;;;5079889;28;20032;-51
2021/12/08 15:46:19;;;;;;;5.90;3.58;;;;;;;;;;5065311;28;20024;-51
2021/12/08 15:48:49;;;;;;;5.68;3.80;;;;;;;;;;5065347;28;20035;-51
2021/12/08 15:51:15;;;;;;;3.92;2.90;;;;;;;;;;5083451;28;20020;-50